Time;durP1;ratioP1;P1;durP2;ratioP2;P2;SDS_P1;SDS_P2;PMS_P1;PMS_P2;Temp;Humidity;BMP_temperature;BMP_pressure;BME280_temperature;BME280_humidity;BME280_pressure;Samples;Min_cycle;Max_cycle;Signal;HPM_P1;HPM_P2
2023/03/27 00:01:22;;;;;;;7.28;1.30;;;;;;;-145.50;100.00;65435.88;4904020;29;20062;-62
2023/03/27 00:03:49;;;;;;;8.63;1.20;;;;;;;-145.50;100.00;65435.88;4902825;29;20107;-65
2023/03/27 00:06:18;;;;;;;6.67;1.37;;;;;;;-145.50;100.00;65435.88;4902380;29;20059;-66
2023/03/27 00:08:47;;;;;;;9.02;1.83;;;;;;;-145.50;100.00;65435.88;4907654;29;20051;-65
2023/03/27 00:11:14;;;;;;;13.30;1.20;;;;;;;-145.50;100.00;65435.88;4901481;29;20055;-66
2023/03/27 00:13:42;;;;;;;3.03;0.93;;;;;;;-145.50;100.00;65435.88;4907782;29;20052;-65
2023/03/27 00:16:22;;;;;;;7.20;1.42;;;;;;;-145.50;100.00;65435.88;4893382;29;20143;-65
2023/03/27 00:18:49;;;;;;;8.57;1.08;;;;;;;-145.50;100.00;65435.88;4907406;29;20104;-66
2023/03/27 00:21:16;;;;;;;3.83;1.02;;;;;;;-145.50;100.00;65435.88;4907558;29;20553;-65
2023/03/27 00:23:42;;;;;;;9.23;1.23;;;;;;;-145.50;100.00;65435.88;4909695;29;20135;-65
2023/03/27 00:26:10;;;;;;;8.15;1.73;;;;;;;-145.50;100.00;65435.88;4907593;29;20163;-65
2023/03/27 00:28:37;;;;;;;6.65;1.20;;;;;;;-145.50;100.00;65435.88;4897730;29;20056;-65
2023/03/27 00:31:09;;;;;;;8.57;1.33;;;;;;;-145.50;100.00;65435.88;4905816;29;20060;-65
2023/03/27 00:33:36;;;;;;;11.80;1.80;;;;;;;-145.50;100.00;65435.88;4901659;29;20157;-65
2023/03/27 00:36:03;;;;;;;10.90;1.40;;;;;;;-145.50;100.00;65435.88;4906924;29;20052;-64
2023/03/27 00:38:30;;;;;;;8.07;1.60;;;;;;;-145.50;100.00;65435.88;4912577;29;20063;-65
2023/03/27 00:40:56;;;;;;;9.15;1.27;;;;;;;-145.50;100.00;65435.88;4901194;29;20048;-65
2023/03/27 00:43:27;;;;;;;4.72;1.08;;;;;;;-145.50;100.00;65435.88;4906119;29;20063;-65
2023/03/27 00:46:01;;;;;;;9.88;1.88;;;;;;;-145.50;100.00;65435.88;4904652;29;20052;-65
2023/03/27 00:48:31;;;;;;;10.32;1.92;;;;;;;-145.50;100.00;65435.88;4902178;29;20135;-65
2023/03/27 00:50:58;;;;;;;9.95;1.58;;;;;;;-145.50;100.00;65435.88;4904590;29;20090;-66
2023/03/27 00:53:27;;;;;;;6.95;1.40;;;;;;;-145.50;100.00;65435.88;4911008;29;20147;-65
2023/03/27 00:56:00;;;;;;;9.52;1.20;;;;;;;-145.50;100.00;65435.88;4905192;29;20110;-65
2023/03/27 00:58:31;;;;;;;7.47;1.30;;;;;;;-145.50;100.00;65435.88;4902702;29;20591;-65
2023/03/27 01:00:57;;;;;;;4.60;1.27;;;;;;;-145.50;100.00;65435.88;4910900;29;20120;-67
2023/03/27 01:03:28;;;;;;;10.43;1.17;;;;;;;-145.50;100.00;65435.88;4905579;29;20409;-67
2023/03/27 01:05:57;;;;;;;8.00;1.10;;;;;;;-145.50;100.00;65435.88;4910964;29;20054;-67
2023/03/27 01:08:26;;;;;;;14.85;1.90;;;;;;;-145.50;100.00;65435.88;4898765;29;20584;-67
2023/03/27 01:11:11;;;;;;;5.93;1.13;;;;;;;-145.50;100.00;65435.88;4906077;29;20504;-67
2023/03/27 01:13:43;;;;;;;5.70;1.02;;;;;;;-145.50;100.00;65435.88;4905059;29;20051;-67
2023/03/27 01:16:17;;;;;;;5.07;1.20;;;;;;;-145.50;100.00;65435.88;4910415;29;20056;-67
2023/03/27 01:19:04;;;;;;;11.63;1.40;;;;;;;-145.50;100.00;65435.88;4910788;29;20158;-68
2023/03/27 01:21:46;;;;;;;10.80;1.50;;;;;;;-145.50;100.00;65435.88;4914471;29;20497;-66
2023/03/27 01:24:36;;;;;;;8.93;1.70;;;;;;;-145.50;100.00;65435.88;4907631;29;20070;-66
2023/03/27 01:27:09;;;;;;;8.27;1.20;;;;;;;-145.50;100.00;65435.88;4921401;29;20052;-66
2023/03/27 01:29:57;;;;;;;7.65;1.13;;;;;;;-145.50;100.00;65435.88;4906136;29;20056;-66
2023/03/27 01:33:03;;;;;;;8.63;1.88;;;;;;;-145.50;100.00;65435.88;4904684;29;20060;-67
2023/03/27 01:35:55;;;;;;;4.65;1.60;;;;;;;-145.50;100.00;65435.88;4899351;29;20139;-67
2023/03/27 01:38:40;;;;;;;6.15;1.15;;;;;;;-145.50;100.00;65435.88;4905847;29;20167;-67
2023/03/27 01:41:12;;;;;;;5.22;1.02;;;;;;;-145.50;100.00;65435.88;4913170;29;20048;-66
2023/03/27 01:43:50;;;;;;;6.65;1.40;;;;;;;-145.50;100.00;65435.88;4905608;29;20440;-66
2023/03/27 01:46:21;;;;;;;8.85;1.77;;;;;;;-145.50;100.00;65435.88;4912190;29;20083;-66
2023/03/27 01:48:55;;;;;;;7.20;1.40;;;;;;;-145.50;100.00;65435.88;4901332;29;20052;-66
2023/03/27 01:51:38;;;;;;;8.57;1.48;;;;;;;-145.50;100.00;65435.88;4909422;29;20056;-66
2023/03/27 01:54:17;;;;;;;7.72;1.55;;;;;;;-145.50;100.00;65435.88;4905088;29;20080;-67
2023/03/27 01:57:16;;;;;;;5.15;1.23;;;;;;;-145.50;100.00;65435.88;4912311;29;20421;-66
2023/03/27 01:59:48;;;;;;;11.93;2.28;;;;;;;-145.50;100.00;65435.88;4907135;29;20081;-66
2023/03/27 02:02:24;;;;;;;8.77;1.17;;;;;;;-145.50;100.00;65435.88;4907577;29;20052;-66
2023/03/27 02:05:02;;;;;;;6.68;1.55;;;;;;;-145.50;100.00;65435.88;4905613;29;20052;-67
2023/03/27 02:07:37;;;;;;;5.97;1.33;;;;;;;-145.50;100.00;65435.88;4905629;29;20064;-66
2023/03/27 02:10:08;;;;;;;6.82;1.30;;;;;;;-145.50;100.00;65435.88;4911453;29;20056;-66
2023/03/27 02:12:42;;;;;;;4.90;1.27;;;;;;;-145.50;100.00;65435.88;4907026;29;20437;-66
2023/03/27 02:15:16;;;;;;;9.88;1.75;;;;;;;-145.50;100.00;65435.88;4906300;29;20111;-66
2023/03/27 02:17:55;;;;;;;5.22;1.30;;;;;;;-145.50;100.00;65435.88;4902853;29;20305;-66
2023/03/27 02:20:23;;;;;;;9.82;1.48;;;;;;;-145.50;100.00;65435.88;4921422;29;20055;-67
2023/03/27 02:22:49;;;;;;;6.72;1.15;;;;;;;-145.50;100.00;65435.88;4906408;29;20594;-66
2023/03/27 02:25:45;;;;;;;4.80;1.45;;;;;;;-145.50;100.00;65435.88;4911855;29;20409;-67
2023/03/27 02:28:33;;;;;;;7.18;1.70;;;;;;;-145.50;100.00;65435.88;4900636;29;20060;-66
2023/03/27 02:31:54;;;;;;;7.10;1.30;;;;;;;-145.50;100.00;65435.88;4910436;29;20501;-66
2023/03/27 02:34:37;;;;;;;8.35;1.30;;;;;;;-145.50;100.00;65435.88;4850441;29;20057;-66
2023/03/27 02:37:28;;;;;;;4.35;1.15;;;;;;;-145.50;100.00;65435.88;4845268;29;20414;-66
2023/03/27 02:40:13;;;;;;;10.23;1.40;;;;;;;-145.50;100.00;65435.88;4838308;29;20495;-67
2023/03/27 02:43:07;;;;;;;7.47;1.58;;;;;;;-145.50;100.00;65435.88;4848887;29;20057;-66
2023/03/27 02:45:49;;;;;;;4.47;1.17;;;;;;;-145.50;100.00;65435.88;4847543;29;20113;-67
2023/03/27 02:48:32;;;;;;;3.40;1.02;;;;;;;-145.50;100.00;65435.88;4849171;29;20053;-66
2023/03/27 02:51:11;;;;;;;4.57;1.10;;;;;;;-145.50;100.00;65435.88;4849907;29;20132;-66
2023/03/27 02:53:45;;;;;;;4.22;0.98;;;;;;;-145.50;100.00;65435.88;4831453;29;20093;-64
2023/03/27 02:56:15;;;;;;;7.68;1.40;;;;;;;-145.50;100.00;65435.88;4847938;29;20160;-63
2023/03/27 02:58:49;;;;;;;6.40;1.02;;;;;;;-145.50;100.00;65435.88;4846063;29;20053;-63
2023/03/27 03:01:21;;;;;;;6.28;2.05;;;;;;;-145.50;100.00;65435.88;4851929;29;20057;-64
2023/03/27 03:03:57;;;;;;;8.70;1.25;;;;;;;-145.50;100.00;65435.88;4854987;29;20058;-64
2023/03/27 03:06:29;;;;;;;5.97;0.98;;;;;;;-145.50;100.00;65435.88;4850467;29;20438;-64
2023/03/27 03:09:02;;;;;;;5.72;1.10;;;;;;;-145.50;100.00;65435.88;4890186;29;20131;-64
2023/03/27 03:11:29;;;;;;;6.35;1.45;;;;;;;-145.50;100.00;65435.88;4909847;29;20056;-63
2023/03/27 03:13:56;;;;;;;6.90;1.02;;;;;;;-145.50;100.00;65435.88;4903550;29;20420;-65
2023/03/27 03:16:23;;;;;;;7.05;1.40;;;;;;;-145.50;100.00;65435.88;4907516;29;20128;-64
2023/03/27 03:18:49;;;;;;;2.63;0.70;;;;;;;-145.50;100.00;65435.88;4916554;29;20446;-64
2023/03/27 03:21:16;;;;;;;4.88;0.90;;;;;;;-145.50;100.00;65435.88;4899811;29;20052;-63
2023/03/27 03:23:43;;;;;;;2.70;0.85;;;;;;;-145.50;100.00;65435.88;4909837;29;20048;-64
2023/03/27 03:26:23;;;;;;;5.80;0.90;;;;;;;-145.50;100.00;65435.88;4900017;29;20064;-63
2023/03/27 03:28:50;;;;;;;3.60;0.80;;;;;;;-145.50;100.00;65435.88;4909965;29;20081;-64
2023/03/27 03:31:41;;;;;;;8.25;1.15;;;;;;;-145.50;100.00;65435.88;4904819;29;20060;-65
2023/03/27 03:34:17;;;;;;;9.77;1.75;;;;;;;-145.50;100.00;65435.88;4908248;29;20060;-64
2023/03/27 03:36:47;;;;;;;7.20;1.40;;;;;;;-145.50;100.00;65435.88;4904859;29;20067;-64
2023/03/27 03:39:15;;;;;;;3.35;0.80;;;;;;;-145.50;100.00;65435.88;4910155;29;20478;-63
2023/03/27 03:41:42;;;;;;;4.32;0.82;;;;;;;-145.50;100.00;65435.88;4909878;29;20067;-64
2023/03/27 03:44:09;;;;;;;6.32;1.23;;;;;;;-145.50;100.00;65435.88;4904812;29;20048;-64
2023/03/27 03:46:35;;;;;;;6.28;1.10;;;;;;;-145.50;100.00;65435.88;4905023;29;20059;-63
2023/03/27 03:49:03;;;;;;;3.38;0.82;;;;;;;-145.50;100.00;65435.88;4901356;29;20056;-63
2023/03/27 03:51:30;;;;;;;4.83;1.10;;;;;;;-145.50;100.00;65435.88;4909630;29;20087;-64
2023/03/27 03:53:57;;;;;;;3.80;1.15;;;;;;;-145.50;100.00;65435.88;4906012;29;20814;-64
2023/03/27 03:56:24;;;;;;;3.15;0.82;;;;;;;-145.50;100.00;65435.88;4908280;29;20144;-64
2023/03/27 03:58:51;;;;;;;3.60;0.90;;;;;;;-145.50;100.00;65435.88;4907633;29;20533;-65
2023/03/27 04:01:19;;;;;;;4.30;0.80;;;;;;;-145.50;100.00;65435.88;4898790;29;20485;-63
2023/03/27 04:03:46;;;;;;;4.03;0.93;;;;;;;-145.50;100.00;65435.88;4909299;29;20524;-64
2023/03/27 04:06:16;;;;;;;4.18;0.90;;;;;;;-145.50;100.00;65435.88;4904793;29;20083;-64
2023/03/27 04:08:46;;;;;;;5.35;0.90;;;;;;;-145.50;100.00;65435.88;4909638;29;20062;-65
2023/03/27 04:11:13;;;;;;;2.78;0.90;;;;;;;-145.50;100.00;65435.88;4905368;29;20127;-64
2023/03/27 04:13:39;;;;;;;1.88;0.93;;;;;;;-145.50;100.00;65435.88;4908624;29;20060;-63
2023/03/27 04:16:06;;;;;;;0.50;0.50;;;;;;;-145.50;100.00;65435.88;4909652;29;20151;-64
2023/03/27 04:18:33;;;;;;;2.85;0.63;;;;;;;-145.50;100.00;65435.88;4908528;29;20052;-65
2023/03/27 04:21:01;;;;;;;3.10;0.60;;;;;;;-145.50;100.00;65435.88;4913488;29;20406;-65
2023/03/27 04:23:32;;;;;;;3.50;0.90;;;;;;;-145.50;100.00;65435.88;4907013;29;20060;-65
2023/03/27 04:26:00;;;;;;;1.05;0.60;;;;;;;-145.50;100.00;65435.88;4913592;29;20044;-65
2023/03/27 04:28:33;;;;;;;2.72;0.63;;;;;;;-145.50;100.00;65435.88;4904058;29;20500;-64
2023/03/27 04:31:06;;;;;;;2.00;0.70;;;;;;;-145.50;100.00;65435.88;4910150;29;20055;-65
2023/03/27 04:33:38;;;;;;;2.05;0.50;;;;;;;-145.50;100.00;65435.88;4928617;29;20135;-65
2023/03/27 04:36:06;;;;;;;2.22;0.45;;;;;;;-145.50;100.00;65435.88;4908378;29;20058;-65
2023/03/27 04:38:35;;;;;;;3.90;0.70;;;;;;;-145.50;100.00;65435.88;4913908;29;20179;-64
2023/03/27 04:41:02;;;;;;;;;;;;;;;-145.50;100.00;65435.88;4905721;29;20048;-65
2023/03/27 04:43:29;;;;;;;2.92;0.77;;;;;;;-145.50;100.00;65435.88;4908919;29;19956;-65
2023/03/27 04:45:56;;;;;;;2.50;0.80;;;;;;;-145.50;100.00;65435.88;4909373;29;20056;-66
2023/03/27 04:48:22;;;;;;;0.43;0.43;;;;;;;-145.50;100.00;65435.88;4917545;29;20056;-64
2023/03/27 04:50:49;;;;;;;2.33;0.50;;;;;;;-145.50;100.00;65435.88;4913738;29;20104;-66
2023/03/27 04:53:19;;;;;;;1.33;0.57;;;;;;;-145.50;100.00;65435.88;4903976;29;20497;-66
2023/03/27 04:55:49;;;;;;;2.65;0.60;;;;;;;-145.50;100.00;65435.88;4909093;29;20052;-65
2023/03/27 04:58:17;;;;;;;1.70;0.50;;;;;;;-145.50;100.00;65435.88;4903730;29;20048;-65
2023/03/27 05:00:49;;;;;;;1.25;0.73;;;;;;;-145.50;100.00;65435.88;4912786;29;20051;-66
2023/03/27 05:03:19;;;;;;;1.92;1.00;;;;;;;-145.50;100.00;65435.88;4907743;29;20159;-65
2023/03/27 05:05:48;;;;;;;1.55;0.70;;;;;;;-145.50;100.00;65435.88;4911888;29;20060;-65
2023/03/27 05:08:16;;;;;;;2.97;0.80;;;;;;;-145.50;100.00;65435.88;4911835;29;20104;-65
2023/03/27 05:10:43;;;;;;;2.22;0.80;;;;;;;-145.50;100.00;65435.88;4901067;29;20134;-66
2023/03/27 05:13:10;;;;;;;2.03;0.68;;;;;;;-145.50;100.00;65435.88;4910906;29;20043;-65
2023/03/27 05:15:37;;;;;;;1.50;0.70;;;;;;;-145.50;100.00;65435.88;4906972;29;20060;-66
2023/03/27 05:18:05;;;;;;;4.82;0.70;;;;;;;-145.50;100.00;65435.88;4915290;29;20139;-65
2023/03/27 05:20:33;;;;;;;1.83;0.65;;;;;;;-145.50;100.00;65435.88;4907733;29;20686;-65
2023/03/27 05:23:00;;;;;;;1.45;0.77;;;;;;;-145.50;100.00;65435.88;4908352;29;20123;-65
2023/03/27 05:25:27;;;;;;;1.48;0.60;;;;;;;-145.50;100.00;65435.88;4905125;29;21174;-64
2023/03/27 05:27:54;;;;;;;3.80;0.90;;;;;;;-145.50;100.00;65435.88;4908554;29;20560;-66
2023/03/27 05:30:22;;;;;;;1.95;0.73;;;;;;;-145.50;100.00;65435.88;4912148;29;20056;-65
2023/03/27 05:32:50;;;;;;;1.48;0.80;;;;;;;-145.50;100.00;65435.88;4906267;29;20060;-65
2023/03/27 05:35:20;;;;;;;5.22;1.33;;;;;;;-145.50;100.00;65435.88;4912423;29;20063;-65
2023/03/27 05:37:48;;;;;;;4.43;1.08;;;;;;;-145.50;100.00;65435.88;4916493;29;20127;-66
2023/03/27 05:40:16;;;;;;;2.97;1.27;;;;;;;-145.50;100.00;65435.88;4907616;29;20486;-65
2023/03/27 05:42:47;;;;;;;5.20;1.10;;;;;;;-145.50;100.00;65435.88;4912172;29;20056;-65
2023/03/27 05:45:13;;;;;;;2.58;0.82;;;;;;;-145.50;100.00;65435.88;4909212;29;20422;-65
2023/03/27 05:47:49;;;;;;;2.00;0.80;;;;;;;-145.50;100.00;65435.88;4927502;29;20048;-65
2023/03/27 05:50:18;;;;;;;2.17;1.00;;;;;;;-145.50;100.00;65435.88;4906371;29;20139;-65
2023/03/27 05:52:45;;;;;;;7.82;1.20;;;;;;;-145.50;100.00;65435.88;4907025;29;20158;-66
2023/03/27 05:55:13;;;;;;;1.65;0.95;;;;;;;-145.50;100.00;65435.88;4903445;29;20424;-65
2023/03/27 05:57:41;;;;;;;3.13;1.13;;;;;;;-145.50;100.00;65435.88;4912183;29;20470;-64
2023/03/27 06:00:10;;;;;;;2.05;1.20;;;;;;;-145.50;100.00;65435.88;4905846;29;20508;-65
2023/03/27 06:02:38;;;;;;;2.05;0.98;;;;;;;-145.50;100.00;65435.88;4911403;29;20156;-66
2023/03/27 06:05:12;;;;;;;1.67;0.80;;;;;;;-145.50;100.00;65435.88;4905331;29;20080;-64
2023/03/27 06:07:39;;;;;;;6.93;1.60;;;;;;;-145.50;100.00;65435.88;4901958;29;20086;-64
2023/03/27 06:10:11;;;;;;;2.70;0.90;;;;;;;-145.50;100.00;65435.88;4911246;29;20057;-64
2023/03/27 06:12:40;;;;;;;2.33;1.17;;;;;;;-145.50;100.00;65435.88;4905379;29;20084;-64
2023/03/27 06:15:08;;;;;;;2.05;1.20;;;;;;;-145.50;100.00;65435.88;4915600;29;20063;-65
2023/03/27 06:17:37;;;;;;;3.88;1.85;;;;;;;-145.50;100.00;65435.88;4908814;29;20056;-65
2023/03/27 06:20:14;;;;;;;3.33;1.00;;;;;;;-145.50;100.00;65435.88;4907905;29;20052;-64
2023/03/27 06:22:44;;;;;;;2.35;1.20;;;;;;;-145.50;100.00;65435.88;4906037;29;20201;-64
2023/03/27 06:25:11;;;;;;;3.42;1.27;;;;;;;-145.50;100.00;65435.88;4911387;29;20657;-65
2023/03/27 06:27:40;;;;;;;5.82;1.70;;;;;;;-145.50;100.00;65435.88;4911287;29;20464;-65
2023/03/27 06:30:09;;;;;;;4.05;1.48;;;;;;;-145.50;100.00;65435.88;4905324;29;20182;-65
2023/03/27 06:32:36;;;;;;;5.22;1.65;;;;;;;-145.50;100.00;65435.88;4907561;29;20112;-65
2023/03/27 06:35:03;;;;;;;9.05;1.73;;;;;;;-145.50;100.00;65435.88;4900584;29;20086;-64
2023/03/27 06:37:35;;;;;;;3.28;1.20;;;;;;;-145.50;100.00;65435.88;4910455;29;20048;-64
2023/03/27 06:40:08;;;;;;;5.32;1.67;;;;;;;-145.50;100.00;65435.88;4905558;29;20087;-66
2023/03/27 06:42:35;;;;;;;7.15;2.58;;;;;;;-145.50;100.00;65435.88;4910863;29;20048;-65
2023/03/27 06:45:04;;;;;;;4.30;1.75;;;;;;;-145.50;100.00;65435.88;4909186;29;20729;-65
2023/03/27 06:47:31;;;;;;;5.25;1.63;;;;;;;-145.50;100.00;65435.88;4896594;29;20052;-67
2023/03/27 06:50:05;;;;;;;5.28;1.92;;;;;;;-145.50;100.00;65435.88;4906592;29;20064;-65
2023/03/27 06:52:31;;;;;;;10.43;2.00;;;;;;;-145.50;100.00;65435.88;4904735;29;20615;-66
2023/03/27 06:54:58;;;;;;;5.90;1.80;;;;;;;-145.50;100.00;65435.88;4910755;29;20063;-65
2023/03/27 06:57:25;;;;;;;8.18;1.85;;;;;;;-145.50;100.00;65435.88;4905838;29;20060;-65
2023/03/27 06:59:52;;;;;;;5.32;2.00;;;;;;;-145.50;100.00;65435.88;4906765;29;20082;-65
2023/03/27 07:02:18;;;;;;;5.57;1.83;;;;;;;-145.50;100.00;65435.88;4902797;29;20062;-65
2023/03/27 07:04:45;;;;;;;9.63;2.13;;;;;;;-145.50;100.00;65435.88;4900589;29;20063;-66
2023/03/27 07:07:29;;;;;;;6.00;1.42;;;;;;;-145.50;100.00;65435.88;4898437;29;20063;-64
2023/03/27 07:09:56;;;;;;;7.28;1.58;;;;;;;-145.50;100.00;65435.88;4902505;29;20586;-64
2023/03/27 07:12:22;;;;;;;6.15;1.50;;;;;;;-145.50;100.00;65435.88;4907406;29;20091;-66
2023/03/27 07:14:50;;;;;;;5.03;1.65;;;;;;;-145.50;100.00;65435.88;4902597;29;20424;-65
2023/03/27 07:17:17;;;;;;;5.97;1.95;;;;;;;-145.50;100.00;65435.88;4910868;29;20522;-65
2023/03/27 07:19:43;;;;;;;3.83;1.30;;;;;;;-145.50;100.00;65435.88;4909130;29;20048;-65
2023/03/27 07:22:10;;;;;;;4.40;1.35;;;;;;;-145.50;100.00;65435.88;4903945;29;20048;-66
2023/03/27 07:24:36;;;;;;;7.63;1.63;;;;;;;-145.50;100.00;65435.88;4906198;29;20056;-66
2023/03/27 07:27:03;;;;;;;9.05;1.75;;;;;;;-145.50;100.00;65435.88;4908832;29;20044;-66
2023/03/27 07:29:30;;;;;;;8.15;1.90;;;;;;;-145.50;100.00;65435.88;4909978;29;20079;-65
2023/03/27 07:31:57;;;;;;;6.93;1.77;;;;;;;-145.50;100.00;65435.88;4903835;29;20067;-65
2023/03/27 07:34:28;;;;;;;7.60;1.75;;;;;;;-145.50;100.00;65435.88;4909013;29;20059;-65
2023/03/27 07:36:58;;;;;;;6.80;1.55;;;;;;;-145.50;100.00;65435.88;4908596;29;20600;-65
2023/03/27 07:39:24;;;;;;;7.30;1.65;;;;;;;-145.50;100.00;65435.88;4895740;29;20135;-65
2023/03/27 07:41:51;;;;;;;6.30;1.52;;;;;;;-145.50;100.00;65435.88;4907556;29;20083;-65
2023/03/27 07:44:18;;;;;;;9.57;1.77;;;;;;;-145.50;100.00;65435.88;4902684;29;20083;-64
2023/03/27 07:46:45;;;;;;;6.30;1.55;;;;;;;-145.50;100.00;65435.88;4907840;29;20052;-65
2023/03/27 07:49:12;;;;;;;7.00;1.70;;;;;;;-145.50;100.00;65435.88;4905253;29;20549;-66
2023/03/27 07:51:38;;;;;;;8.38;1.30;;;;;;;-145.50;100.00;65435.88;4905340;29;20048;-65
2023/03/27 07:54:05;;;;;;;4.82;1.67;;;;;;;-145.50;100.00;65435.88;4906356;29;20138;-65
2023/03/27 07:56:32;;;;;;;9.18;1.80;;;;;;;-145.50;100.00;65435.88;4904526;29;20131;-65
2023/03/27 07:59:00;;;;;;;8.25;1.73;;;;;;;-145.50;100.00;65435.88;4914162;29;20112;-65
2023/03/27 08:01:27;;;;;;;6.93;1.50;;;;;;;-145.50;100.00;65435.88;4903195;29;20439;-65
2023/03/27 08:03:53;;;;;;;6.75;1.45;;;;;;;-145.50;100.00;65435.88;4909973;29;20493;-65
2023/03/27 08:06:20;;;;;;;13.65;2.88;;;;;;;-145.50;100.00;65435.88;4900347;28;20096;-65
2023/03/27 08:08:46;;;;;;;7.22;1.60;;;;;;;-145.50;100.00;65435.88;4905298;29;20062;-65
2023/03/27 08:11:13;;;;;;;6.60;1.48;;;;;;;-145.50;100.00;65435.88;4910018;29;20070;-65
2023/03/27 08:13:55;;;;;;;7.00;1.90;;;;;;;-145.50;100.00;65435.88;4903597;29;20151;-65
2023/03/27 08:16:26;;;;;;;6.95;1.58;;;;;;;-145.50;100.00;65435.88;4905334;29;20079;-64
2023/03/27 08:18:53;;;;;;;10.27;1.65;;;;;;;-145.50;100.00;65435.88;4902486;29;20116;-65
2023/03/27 08:21:20;;;;;;;5.65;1.27;;;;;;;-145.50;100.00;65435.88;4903134;29;20150;-65
2023/03/27 08:23:46;;;;;;;6.80;2.03;;;;;;;-145.50;100.00;65435.88;4902393;29;20544;-65
2023/03/27 08:26:13;;;;;;;4.70;1.27;;;;;;;-145.50;100.00;65435.88;4908112;29;20544;-66
2023/03/27 08:28:39;;;;;;;4.20;1.25;;;;;;;-145.50;100.00;65435.88;4909478;29;20086;-65
2023/03/27 08:31:12;;;;;;;12.55;2.20;;;;;;;-145.50;100.00;65435.88;4903256;29;20052;-66
2023/03/27 08:33:43;;;;;;;7.35;1.40;;;;;;;-145.50;100.00;65435.88;4905240;29;20056;-66
2023/03/27 08:36:13;;;;;;;7.47;1.63;;;;;;;-145.50;100.00;65435.88;4900006;29;20802;-65
2023/03/27 08:38:41;;;;;;;8.30;1.85;;;;;;;-145.50;100.00;65435.88;4908635;29;20116;-65
2023/03/27 08:41:17;;;;;;;;;;;;;;;-145.50;100.00;65435.88;4921451;29;20051;-66
2023/03/27 08:43:44;;;;;;;7.72;1.52;;;;;;;-145.50;100.00;65435.88;4910359;29;20367;-66
2023/03/27 08:46:22;;;;;;;6.70;1.45;;;;;;;-145.50;100.00;65435.88;4910119;29;20386;-65
2023/03/27 08:48:56;;;;;;;6.93;1.65;;;;;;;-145.50;100.00;65435.88;4902574;29;20048;-65
2023/03/27 08:51:29;;;;;;;1.70;0.88;;;;;;;-145.50;100.00;65435.88;4906416;29;20118;-65
2023/03/27 08:54:15;;;;;;;6.95;1.13;;;;;;;-145.50;100.00;65435.88;4904002;29;20048;-65
2023/03/27 08:56:42;;;;;;;6.45;1.48;;;;;;;-145.50;100.00;65435.88;4911907;29;20060;-66
2023/03/27 08:59:14;;;;;;;2.05;0.80;;;;;;;-145.50;100.00;65435.88;4907306;29;20060;-66
2023/03/27 09:01:51;;;;;;;1.63;0.63;;;;;;;-145.50;100.00;65435.88;4909365;29;20754;-67
2023/03/27 09:04:59;;;;;;;3.85;0.50;;;;;;;-145.50;100.00;65435.88;4903214;29;20064;-66
2023/03/27 09:07:40;;;;;;;1.65;0.47;;;;;;;-145.50;100.00;65435.88;4891626;29;20083;-66
2023/03/27 09:10:14;;;;;;;1.00;0.60;;;;;;;-145.50;100.00;65435.88;4897336;29;20070;-68
2023/03/27 09:12:57;;;;;;;1.83;0.60;;;;;;;-145.50;100.00;65435.88;4908796;29;20052;-66
2023/03/27 09:15:31;;;;;;;1.75;0.73;;;;;;;-145.50;100.00;65435.88;4904565;29;20850;-65
2023/03/27 09:18:15;;;;;;;1.77;0.85;;;;;;;-145.50;100.00;65435.88;4908268;29;20153;-66
2023/03/27 09:20:49;;;;;;;2.83;1.20;;;;;;;-145.50;100.00;65435.88;4907121;29;20052;-66
2023/03/27 09:23:20;;;;;;;6.18;0.82;;;;;;;-145.50;100.00;65435.88;4912970;29;20100;-66
2023/03/27 09:25:54;;;;;;;2.25;0.70;;;;;;;-145.50;100.00;65435.88;4913303;29;20052;-67
2023/03/27 09:28:35;;;;;;;4.07;0.82;;;;;;;-145.50;100.00;65435.88;4906660;29;20059;-66
2023/03/27 09:31:21;;;;;;;2.17;0.50;;;;;;;-145.50;100.00;65435.88;4907713;29;20159;-66
2023/03/27 09:33:47;;;;;;;5.38;0.90;;;;;;;-145.50;100.00;65435.88;4905770;29;20428;-67
2023/03/27 09:36:14;;;;;;;3.70;0.68;;;;;;;-145.50;100.00;65435.88;4912852;29;20464;-66
2023/03/27 09:38:45;;;;;;;2.65;1.05;;;;;;;-145.50;100.00;65435.88;4905567;29;20051;-65
2023/03/27 09:41:16;;;;;;;4.28;0.60;;;;;;;-145.50;100.00;65435.88;4915545;29;20051;-65
2023/03/27 09:44:01;;;;;;;3.83;0.50;;;;;;;-145.50;100.00;65435.88;4902732;29;20064;-66
2023/03/27 09:46:28;;;;;;;5.88;0.75;;;;;;;-145.50;100.00;65435.88;4907933;29;20072;-67
2023/03/27 09:49:03;;;;;;;4.28;1.10;;;;;;;-145.50;100.00;65435.88;4911027;29;20048;-67
2023/03/27 09:51:38;;;;;;;5.72;1.05;;;;;;;-145.50;100.00;65435.88;4906679;29;20060;-66
2023/03/27 09:54:06;;;;;;;3.53;0.60;;;;;;;-145.50;100.00;65435.88;4915422;29;20039;-66
2023/03/27 09:56:41;;;;;;;2.20;0.63;;;;;;;-145.50;100.00;65435.88;4906700;29;20055;-66
2023/03/27 09:59:19;;;;;;;2.80;0.68;;;;;;;-145.50;100.00;65435.88;4899250;29;20155;-66
2023/03/27 10:01:47;;;;;;;4.53;0.88;;;;;;;-145.50;100.00;65435.88;4905251;29;20052;-66
2023/03/27 10:04:17;;;;;;;5.35;0.68;;;;;;;-145.50;100.00;65435.88;4912139;29;20056;-66
2023/03/27 10:07:09;;;;;;;2.20;0.80;;;;;;;-145.50;100.00;65435.88;4906786;29;20082;-66
2023/03/27 10:09:38;;;;;;;4.03;0.90;;;;;;;-145.50;100.00;65435.88;4913580;29;20047;-66
2023/03/27 10:12:05;;;;;;;3.92;1.45;;;;;;;-145.50;100.00;65435.88;4902192;29;20172;-67
2023/03/27 10:14:44;;;;;;;5.13;0.80;;;;;;;-145.50;100.00;65435.88;4906369;29;20059;-65
2023/03/27 10:17:28;;;;;;;3.60;1.10;;;;;;;-145.50;100.00;65435.88;4908365;29;20485;-66
2023/03/27 10:20:24;;;;;;;5.30;0.88;;;;;;;-145.50;100.00;65435.88;4897871;29;20077;-66
2023/03/27 10:22:57;;;;;;;3.70;0.70;;;;;;;-145.50;100.00;65435.88;4928543;29;20044;-65
2023/03/27 10:25:38;;;;;;;1.88;0.50;;;;;;;-145.50;100.00;65435.88;4902693;28;20142;-66
2023/03/27 10:28:16;;;;;;;3.33;0.40;;;;;;;-145.50;100.00;65435.88;4912550;29;20457;-67
2023/03/27 10:31:00;;;;;;;2.05;0.45;;;;;;;-145.50;100.00;65435.88;4903825;29;20146;-68
2023/03/27 10:33:30;;;;;;;6.40;1.30;;;;;;;-145.50;100.00;65435.88;4913185;29;20506;-67
2023/03/27 10:35:57;;;;;;;1.10;0.50;;;;;;;-145.50;100.00;65435.88;4901450;29;20040;-67
2023/03/27 10:38:26;;;;;;;3.28;0.80;;;;;;;-145.50;100.00;65435.88;4908040;29;20056;-66
2023/03/27 10:40:57;;;;;;;5.55;1.00;;;;;;;-145.50;100.00;65435.88;4898552;29;20048;-66
2023/03/27 10:43:36;;;;;;;5.35;0.98;;;;;;;-145.50;100.00;65435.88;4911636;29;20096;-68
2023/03/27 10:46:11;;;;;;;1.80;0.70;;;;;;;-145.50;100.00;65435.88;4912891;29;20048;-67
2023/03/27 10:48:49;;;;;;;5.35;0.73;;;;;;;-145.50;100.00;65435.88;4905947;29;20151;-67
2023/03/27 10:51:41;;;;;;;6.80;1.70;;;;;;;-145.50;100.00;65435.88;4907314;29;20056;-67
2023/03/27 10:54:40;;;;;;;6.63;1.00;;;;;;;-145.50;100.00;65435.88;4899316;29;20055;-66
2023/03/27 10:57:17;;;;;;;5.22;0.65;;;;;;;-145.50;100.00;65435.88;4912581;29;20132;-66
2023/03/27 10:59:50;;;;;;;4.53;0.73;;;;;;;-145.50;100.00;65435.88;4906452;29;20056;-65
2023/03/27 11:02:39;;;;;;;6.10;1.13;;;;;;;-145.50;100.00;65435.88;4918051;29;20083;-67
2023/03/27 11:05:17;;;;;;;2.55;0.75;;;;;;;-145.50;100.00;65435.88;4902045;29;20536;-66
2023/03/27 11:07:54;;;;;;;3.70;1.02;;;;;;;-145.50;100.00;65435.88;4906801;29;20056;-68
2023/03/27 11:10:25;;;;;;;2.92;0.70;;;;;;;-145.50;100.00;65435.88;4897332;29;20064;-66
2023/03/27 11:13:03;;;;;;;5.78;1.10;;;;;;;-145.50;100.00;65435.88;4910703;29;20055;-64
2023/03/27 11:15:38;;;;;;;3.85;0.60;;;;;;;-145.50;100.00;65435.88;4905253;29;20071;-67
2023/03/27 11:18:19;;;;;;;3.17;0.80;;;;;;;-145.50;100.00;65435.88;4905284;29;20505;-66
2023/03/27 11:20:50;;;;;;;5.03;1.17;;;;;;;-145.50;100.00;65435.88;4900227;29;20519;-64
2023/03/27 11:23:38;;;;;;;4.05;0.70;;;;;;;-145.50;100.00;65435.88;4910591;29;20142;-64
2023/03/27 11:26:09;;;;;;;2.22;0.65;;;;;;;-145.50;100.00;65435.88;4909988;29;20131;-66
2023/03/27 11:28:51;;;;;;;4.55;0.70;;;;;;;-145.50;100.00;65435.88;4905471;29;20056;-64
2023/03/27 11:31:33;;;;;;;3.28;0.70;;;;;;;-145.50;100.00;65435.88;4903246;29;20040;-64
2023/03/27 11:34:10;;;;;;;4.10;0.80;;;;;;;-145.50;100.00;65435.88;4900163;29;20432;-67